Terminal Aerodrome Forecast
Issued by NWS

Home | Current Version | Previous Version | Text Only | Print | Product List | Glossary On
Versions: 1 2 3 4 5 6 7 8 9 10 11 12
000
FTUS45 KRIW 051720
TAFWRL
TAF
KWRL 051720Z 0518/0618 32014KT 5SM -SHRA BR SCT030 BKN060
     FM060100 32014G20KT 4SM -SHRA BR SCT008 OVC015
     FM061500 31008KT P6SM VCSH OVC025=

USA.gov is the U.S. government's official web portal to all federal, state and local government web resources and services.